createdAt,value
2023-03-05T00:03:01.205Z,1.00
2023-03-05T00:08:04.569Z,1.00
2023-03-05T00:13:09.244Z,1.10
2023-03-05T00:18:13.334Z,1.10
2023-03-05T00:23:16.911Z,1.10
2023-03-05T00:28:21.731Z,1.20
2023-03-05T00:33:25.069Z,1.20
2023-03-05T00:38:28.462Z,1.20
2023-03-05T00:43:33.200Z,1.10
2023-03-05T00:48:36.611Z,1.10
2023-03-05T00:53:39.994Z,1.10
2023-03-05T00:58:44.735Z,1.10
2023-03-05T01:03:48.021Z,1.00
2023-03-05T01:08:51.319Z,1.00
2023-03-05T01:13:55.934Z,1.00
2023-03-05T01:18:59.273Z,1.00
2023-03-05T01:24:03.038Z,1.00
2023-03-05T01:29:07.978Z,1.00
2023-03-05T01:34:11.231Z,1.10
2023-03-05T01:39:14.890Z,1.10
2023-03-05T01:44:26.575Z,1.10
2023-03-05T01:49:32.013Z,1.10
2023-03-05T01:54:37.803Z,1.10
2023-03-05T01:59:45.043Z,1.10
2023-03-05T02:04:52.112Z,1.10
2023-03-05T02:09:55.542Z,1.00
2023-03-05T02:15:06.193Z,1.10
2023-03-05T02:20:14.121Z,1.10
2023-03-05T02:25:21.529Z,1.10
2023-03-05T02:30:26.485Z,1.00
2023-03-05T02:35:29.906Z,1.00
2023-03-05T02:40:34.690Z,1.00
2023-03-05T02:45:38.655Z,1.00
2023-03-05T02:50:43.183Z,1.10
2023-03-05T02:55:49.940Z,1.00
2023-03-05T03:00:53.257Z,1.00
2023-03-05T03:05:56.757Z,1.00
2023-03-05T03:11:08.066Z,1.10
2023-03-05T03:16:14.374Z,1.10
2023-03-05T03:21:22.393Z,1.10
2023-03-05T03:26:27.348Z,1.00
2023-03-05T03:31:30.784Z,1.00
2023-03-05T03:36:35.104Z,1.10
2023-03-05T03:41:42.667Z,1.10
2023-03-05T03:46:47.363Z,1.10
2023-03-05T03:51:52.564Z,1.00
2023-03-05T03:56:57.215Z,1.10
2023-03-05T04:02:00.483Z,1.10
2023-03-05T04:07:04.914Z,1.10
2023-03-05T04:12:10.406Z,1.00
2023-03-05T04:17:14.402Z,1.10
2023-03-05T04:22:19.499Z,1.10
2023-03-05T04:27:24.165Z,1.10
2023-03-05T04:32:29.855Z,1.00
2023-03-05T04:37:33.240Z,1.00
2023-03-05T04:42:38.337Z,1.00
2023-03-05T04:47:41.647Z,1.10
2023-03-05T04:52:47.207Z,1.00
2023-03-05T04:57:51.905Z,1.00
2023-03-05T05:02:55.380Z,1.00
2023-03-05T05:08:00.226Z,1.00
2023-03-05T05:13:04.982Z,1.00
2023-03-05T05:18:08.358Z,1.00
2023-03-05T05:23:11.681Z,1.00
2023-03-05T05:28:16.414Z,1.10
2023-03-05T05:33:19.753Z,1.10
2023-03-05T05:38:23.057Z,1.10
2023-03-05T05:43:28.437Z,1.10
2023-03-05T05:48:33.411Z,1.10
2023-03-05T05:53:36.762Z,1.10
2023-03-05T05:58:47.289Z,1.10
2023-03-05T06:03:50.726Z,1.00
2023-03-05T06:08:54.439Z,1.10
2023-03-05T06:13:59.241Z,1.10
2023-03-05T06:19:05.705Z,1.10
2023-03-05T06:24:09.499Z,1.10
2023-03-05T06:29:14.361Z,1.10
2023-03-05T06:34:17.687Z,1.20
2023-03-05T06:39:21.007Z,1.10
2023-03-05T06:44:25.862Z,1.10
2023-03-05T06:49:29.222Z,1.20
2023-03-05T06:54:32.513Z,1.30
2023-03-05T06:59:49.709Z,1.30
2023-03-05T07:04:55.748Z,1.40
2023-03-05T07:09:59.003Z,1.40
2023-03-05T07:15:06.599Z,1.50
2023-03-05T07:20:11.329Z,1.60
2023-03-05T07:25:19.436Z,1.70
2023-03-05T07:30:25.695Z,1.70
2023-03-05T07:35:29.044Z,1.80
2023-03-05T07:40:32.356Z,1.90
2023-03-05T07:45:40.545Z,2.10
2023-03-05T07:50:45.059Z,2.20
2023-03-05T07:55:48.737Z,2.30
2023-03-05T08:00:53.587Z,2.30
2023-03-05T08:05:57.015Z,2.40
2023-03-05T08:11:05.277Z,2.40
2023-03-05T08:16:13.854Z,2.50
2023-03-05T08:21:18.816Z,2.50
2023-03-05T08:26:25.785Z,2.70
2023-03-05T08:31:31.656Z,2.80
2023-03-05T08:36:44.108Z,2.90
2023-03-05T08:41:48.528Z,3.10
2023-03-05T08:46:53.408Z,3.20
2023-03-05T08:51:57.214Z,3.40
2023-03-05T08:57:01.733Z,3.50
2023-03-05T09:02:06.594Z,3.60
2023-03-05T09:07:11.067Z,3.70
2023-03-05T09:12:16.041Z,3.80
2023-03-05T09:17:20.840Z,4.10
2023-03-05T09:22:24.246Z,4.40
2023-03-05T09:27:29.727Z,4.60
2023-03-05T09:32:34.823Z,4.70
2023-03-05T09:37:38.296Z,4.90
2023-03-05T09:43:02.402Z,5.10
2023-03-05T09:48:16.760Z,5.30
2023-03-05T09:53:32.085Z,5.40
2023-03-05T09:58:39.456Z,5.60
2023-03-05T10:03:57.001Z,5.60
2023-03-05T10:09:08.655Z,5.80
2023-03-05T10:14:15.541Z,5.50
2023-03-05T10:19:33.177Z,5.60
2023-03-05T10:24:58.424Z,5.90
2023-03-05T10:30:09.372Z,6.20
2023-03-05T10:35:39.621Z,6.10
2023-03-05T10:40:47.747Z,6.30
2023-03-05T10:45:54.068Z,6.70
2023-03-05T10:51:04.079Z,6.60
2023-03-05T10:56:08.832Z,6.40
2023-03-05T11:01:23.920Z,6.40
2023-03-05T11:06:40.333Z,6.80
2023-03-05T11:11:43.763Z,6.80
2023-03-05T11:16:49.879Z,7.20
2023-03-05T11:22:17.299Z,7.10
2023-03-05T11:27:27.519Z,6.90
2023-03-05T11:32:31.773Z,6.50
2023-03-05T11:37:36.609Z,6.10
2023-03-05T11:42:41.679Z,6.00
2023-03-05T11:47:52.267Z,6.20
2023-03-05T11:53:00.100Z,6.20
2023-03-05T11:58:43.808Z,6.20
2023-03-05T12:03:47.810Z,6.20
2023-03-05T12:08:55.952Z,6.00
2023-03-05T12:14:05.100Z,6.20
2023-03-05T12:19:35.039Z,6.10
2023-03-05T12:24:41.057Z,6.20
2023-03-05T12:29:47.583Z,6.00
2023-03-05T12:34:57.314Z,5.90
2023-03-05T12:40:04.991Z,5.60
2023-03-05T12:45:29.793Z,5.50
2023-03-05T12:50:53.160Z,5.40
2023-03-05T12:56:04.099Z,5.40
2023-03-05T13:01:30.419Z,5.40
2023-03-05T13:06:36.806Z,5.60
2023-03-05T13:11:47.172Z,5.60
2023-03-05T13:16:50.678Z,5.80
2023-03-05T13:22:05.051Z,5.80
2023-03-05T13:27:25.770Z,5.70
2023-03-05T13:32:31.579Z,5.60
2023-03-05T13:37:36.946Z,5.30
2023-03-05T13:42:41.839Z,4.90
2023-03-05T13:47:54.325Z,4.90
2023-03-05T13:52:59.387Z,4.90
2023-03-05T13:58:05.372Z,4.90
2023-03-05T14:03:12.963Z,4.60
2023-03-05T14:08:23.500Z,4.60
2023-03-05T14:13:32.213Z,4.50
2023-03-05T14:18:36.257Z,4.50
2023-03-05T14:23:43.219Z,4.30
2023-03-05T14:28:52.601Z,4.10
2023-03-05T14:34:05.895Z,4.00
2023-03-05T14:39:22.202Z,4.00
2023-03-05T14:44:34.897Z,4.00
2023-03-05T14:49:41.673Z,4.00
2023-03-05T14:54:45.574Z,4.10
2023-03-05T14:59:54.753Z,4.20
2023-03-05T15:04:59.265Z,4.40
2023-03-05T15:10:07.889Z,4.40
2023-03-05T15:15:18.387Z,4.30
2023-03-05T15:20:25.374Z,4.30
2023-03-05T15:25:31.673Z,4.30
2023-03-05T15:30:42.817Z,4.20
2023-03-05T15:35:47.790Z,4.10
2023-03-05T15:40:53.295Z,4.10
2023-03-05T15:45:58.400Z,4.00
2023-03-05T15:51:03.586Z,3.90
2023-03-05T15:56:16.886Z,3.90
2023-03-05T16:01:23.795Z,4.00
2023-03-05T16:06:28.119Z,4.10
2023-03-05T16:11:33.780Z,4.00
2023-03-05T16:16:41.334Z,4.00
2023-03-05T16:21:44.778Z,3.90
2023-03-05T16:26:48.141Z,3.90
2023-03-05T16:31:55.133Z,3.80
2023-03-05T16:37:02.276Z,3.70
2023-03-05T16:42:06.176Z,3.60
2023-03-05T16:47:13.431Z,3.50
2023-03-05T16:52:19.750Z,3.50
2023-03-05T16:57:29.186Z,3.40
2023-03-05T17:02:36.973Z,3.40
2023-03-05T17:07:40.727Z,3.30
2023-03-05T17:12:47.537Z,3.20
2023-03-05T17:17:52.581Z,3.20
2023-03-05T17:22:56.974Z,3.10
2023-03-05T17:28:00.540Z,3.00
2023-03-05T17:33:06.121Z,3.00
2023-03-05T17:38:11.455Z,3.00
2023-03-05T17:43:25.069Z,2.90
2023-03-05T17:48:34.513Z,2.90
2023-03-05T17:53:39.507Z,2.80
2023-03-05T17:58:47.871Z,2.80
2023-03-05T18:03:52.726Z,2.80
2023-03-05T18:08:58.297Z,2.70
2023-03-05T18:14:01.990Z,2.70
2023-03-05T18:19:08.382Z,2.60
2023-03-05T18:24:15.726Z,2.60
2023-03-05T18:29:19.036Z,2.60
2023-03-05T18:34:25.821Z,2.60
2023-03-05T18:39:29.645Z,2.50
2023-03-05T18:44:33.511Z,2.60
2023-03-05T18:49:38.615Z,2.50
2023-03-05T18:54:41.918Z,2.50
2023-03-05T18:59:46.004Z,2.50
2023-03-05T19:04:50.854Z,2.50
2023-03-05T19:09:59.727Z,2.40
2023-03-05T19:15:04.462Z,2.40
2023-03-05T19:20:16.509Z,2.30
2023-03-05T19:25:20.086Z,2.40
2023-03-05T19:30:24.248Z,2.40
2023-03-05T19:35:29.525Z,2.40
2023-03-05T19:40:34.021Z,2.40
2023-03-05T19:45:37.556Z,2.40
2023-03-05T19:50:43.632Z,2.40
2023-03-05T19:55:47.305Z,2.40
2023-03-05T20:00:50.722Z,2.30
2023-03-05T20:05:55.676Z,2.20
2023-03-05T20:11:05.167Z,2.10
2023-03-05T20:16:17.103Z,2.00
2023-03-05T20:21:24.500Z,2.00
2023-03-05T20:26:28.515Z,2.00
2023-03-05T20:31:36.919Z,2.10
2023-03-05T20:36:42.320Z,2.10
2023-03-05T20:41:48.232Z,2.10
2023-03-05T20:47:02.934Z,2.10
2023-03-05T20:52:07.956Z,2.10
2023-03-05T20:57:11.423Z,2.10
2023-03-05T21:02:14.904Z,2.00
2023-03-05T21:07:20.067Z,2.00
2023-03-05T21:12:23.521Z,1.90
2023-03-05T21:17:27.563Z,1.80
2023-03-05T21:22:36.400Z,1.70
2023-03-05T21:27:39.754Z,1.70
2023-03-05T21:32:43.694Z,1.70
2023-03-05T21:37:50.164Z,1.80
2023-03-05T21:42:54.027Z,1.80
2023-03-05T21:47:58.891Z,1.80
2023-03-05T21:53:04.756Z,1.70
2023-03-05T21:58:08.012Z,1.50
2023-03-05T22:03:11.576Z,1.50
2023-03-05T22:08:18.655Z,1.50
2023-03-05T22:13:21.858Z,1.50
2023-03-05T22:18:27.410Z,1.50
2023-03-05T22:23:35.180Z,1.40
2023-03-05T22:28:38.990Z,1.30
2023-03-05T22:33:42.154Z,1.30
2023-03-05T22:38:47.409Z,1.30
2023-03-05T22:43:52.192Z,1.30
2023-03-05T22:48:55.606Z,1.30
2023-03-05T22:54:00.220Z,1.30
2023-03-05T22:59:03.453Z,1.30
2023-03-05T23:04:18.347Z,1.30
2023-03-05T23:09:23.608Z,1.40
2023-03-05T23:14:26.983Z,1.40
2023-03-05T23:19:30.498Z,1.40
2023-03-05T23:24:35.274Z,1.40
2023-03-05T23:29:54.452Z,1.40
2023-03-05T23:34:58.061Z,1.50
2023-03-05T23:40:03.767Z,1.40
2023-03-05T23:45:08.630Z,1.40
2023-03-05T23:50:15.204Z,1.40
2023-03-05T23:55:22.332Z,1.50
